sensor_id;sensor_type;location;lat;lon;timestamp;temperature;humidity
40822;DHT22;26542;50.836;5.356;2022-09-11T00:01:17;17.00;99.90
40822;DHT22;26542;50.836;5.356;2022-09-11T00:03:44;17.00;99.90
40822;DHT22;26542;50.836;5.356;2022-09-11T00:06:13;17.00;99.90
40822;DHT22;26542;50.836;5.356;2022-09-11T00:08:40;16.90;99.90
40822;DHT22;26542;50.836;5.356;2022-09-11T00:11:12;17.00;99.90
40822;DHT22;26542;50.836;5.356;2022-09-11T00:13:42;17.00;99.90
40822;DHT22;26542;50.836;5.356;2022-09-11T00:16:30;17.00;99.90
40822;DHT22;26542;50.836;5.356;2022-09-11T00:19:00;17.00;99.90
40822;DHT22;26542;50.836;5.356;2022-09-11T00:21:26;17.00;99.90
40822;DHT22;26542;50.836;5.356;2022-09-11T00:23:53;17.00;99.90
40822;DHT22;26542;50.836;5.356;2022-09-11T00:26:20;17.00;99.90
40822;DHT22;26542;50.836;5.356;2022-09-11T00:28:49;17.00;99.90
40822;DHT22;26542;50.836;5.356;2022-09-11T00:31:17;17.00;99.90
40822;DHT22;26542;50.836;5.356;2022-09-11T00:33:46;17.00;99.90
40822;DHT22;26542;50.836;5.356;2022-09-11T00:36:15;17.00;99.90
40822;DHT22;26542;50.836;5.356;2022-09-11T00:38:44;17.00;99.90
40822;DHT22;26542;50.836;5.356;2022-09-11T00:41:23;16.90;99.90
40822;DHT22;26542;50.836;5.356;2022-09-11T00:43:51;16.90;99.90
40822;DHT22;26542;50.836;5.356;2022-09-11T00:46:17;16.90;99.90
40822;DHT22;26542;50.836;5.356;2022-09-11T00:48:45;16.90;99.90
40822;DHT22;26542;50.836;5.356;2022-09-11T00:51:28;16.90;99.90
40822;DHT22;26542;50.836;5.356;2022-09-11T00:53:57;16.90;99.90
40822;DHT22;26542;50.836;5.356;2022-09-11T00:56:27;16.90;99.90
40822;DHT22;26542;50.836;5.356;2022-09-11T00:58:55;16.90;99.90
40822;DHT22;26542;50.836;5.356;2022-09-11T01:01:21;16.90;99.90
40822;DHT22;26542;50.836;5.356;2022-09-11T01:03:48;16.80;99.90
40822;DHT22;26542;50.836;5.356;2022-09-11T01:06:18;16.80;99.90
40822;DHT22;26542;50.836;5.356;2022-09-11T01:08:46;16.80;99.90
40822;DHT22;26542;50.836;5.356;2022-09-11T01:16:48;16.70;99.90
40822;DHT22;26542;50.836;5.356;2022-09-11T01:19:57;16.70;99.90
40822;DHT22;26542;50.836;5.356;2022-09-11T01:26:00;16.70;99.90
40822;DHT22;26542;50.836;5.356;2022-09-11T01:28:38;16.70;99.90
40822;DHT22;26542;50.836;5.356;2022-09-11T01:31:11;16.70;99.90
40822;DHT22;26542;50.836;5.356;2022-09-11T01:33:46;16.60;99.90
40822;DHT22;26542;50.836;5.356;2022-09-11T01:36:20;16.60;99.90
40822;DHT22;26542;50.836;5.356;2022-09-11T01:38:55;16.70;99.90
40822;DHT22;26542;50.836;5.356;2022-09-11T01:41:43;16.70;99.90
40822;DHT22;26542;50.836;5.356;2022-09-11T01:44:56;16.70;99.90
40822;DHT22;26542;50.836;5.356;2022-09-11T01:47:05;16.70;99.90
40822;DHT22;26542;50.836;5.356;2022-09-11T01:52:23;16.70;99.90
40822;DHT22;26542;50.836;5.356;2022-09-11T01:55:02;16.70;99.90
40822;DHT22;26542;50.836;5.356;2022-09-11T01:57:44;16.80;99.90
40822;DHT22;26542;50.836;5.356;2022-09-11T02:00:13;16.80;99.90
40822;DHT22;26542;50.836;5.356;2022-09-11T02:02:50;16.90;99.90
40822;DHT22;26542;50.836;5.356;2022-09-11T02:05:25;16.90;99.90
40822;DHT22;26542;50.836;5.356;2022-09-11T02:08:25;16.90;99.90
40822;DHT22;26542;50.836;5.356;2022-09-11T02:11:12;16.90;99.90
40822;DHT22;26542;50.836;5.356;2022-09-11T02:13:50;17.00;99.90
40822;DHT22;26542;50.836;5.356;2022-09-11T02:16:41;17.00;99.90
40822;DHT22;26542;50.836;5.356;2022-09-11T02:19:12;17.00;99.90
40822;DHT22;26542;50.836;5.356;2022-09-11T02:21:39;16.90;99.90
40822;DHT22;26542;50.836;5.356;2022-09-11T02:24:05;16.90;99.90
40822;DHT22;26542;50.836;5.356;2022-09-11T02:26:37;16.90;99.90
40822;DHT22;26542;50.836;5.356;2022-09-11T02:29:04;16.90;99.90
40822;DHT22;26542;50.836;5.356;2022-09-11T02:31:30;17.00;99.90
40822;DHT22;26542;50.836;5.356;2022-09-11T02:33:57;16.90;99.90
40822;DHT22;26542;50.836;5.356;2022-09-11T02:39:26;17.00;99.90
40822;DHT22;26542;50.836;5.356;2022-09-11T02:45:25;16.90;99.90
40822;DHT22;26542;50.836;5.356;2022-09-11T02:59:09;17.00;99.90
40822;DHT22;26542;50.836;5.356;2022-09-11T03:01:52;17.00;99.90
40822;DHT22;26542;50.836;5.356;2022-09-11T03:04:21;17.10;99.90
40822;DHT22;26542;50.836;5.356;2022-09-11T03:06:48;17.10;99.90
40822;DHT22;26542;50.836;5.356;2022-09-11T03:09:17;17.10;99.90
40822;DHT22;26542;50.836;5.356;2022-09-11T03:11:44;17.20;99.90
40822;DHT22;26542;50.836;5.356;2022-09-11T03:14:10;17.20;99.90
40822;DHT22;26542;50.836;5.356;2022-09-11T03:16:36;17.20;99.90
40822;DHT22;26542;50.836;5.356;2022-09-11T03:19:03;17.20;99.90
40822;DHT22;26542;50.836;5.356;2022-09-11T03:21:32;17.20;99.90
40822;DHT22;26542;50.836;5.356;2022-09-11T03:24:00;17.20;99.90
40822;DHT22;26542;50.836;5.356;2022-09-11T03:26:25;17.30;99.90
40822;DHT22;26542;50.836;5.356;2022-09-11T03:28:52;17.30;99.90
40822;DHT22;26542;50.836;5.356;2022-09-11T03:31:19;17.30;99.90
40822;DHT22;26542;50.836;5.356;2022-09-11T03:33:45;17.20;99.90
40822;DHT22;26542;50.836;5.356;2022-09-11T03:36:14;17.20;99.90
40822;DHT22;26542;50.836;5.356;2022-09-11T03:38:40;17.20;99.90
40822;DHT22;26542;50.836;5.356;2022-09-11T03:41:07;17.10;99.90
40822;DHT22;26542;50.836;5.356;2022-09-11T03:43:33;17.00;99.90
40822;DHT22;26542;50.836;5.356;2022-09-11T03:45:59;17.00;99.90
40822;DHT22;26542;50.836;5.356;2022-09-11T03:48:25;17.00;99.90
40822;DHT22;26542;50.836;5.356;2022-09-11T03:50:53;17.00;99.90
40822;DHT22;26542;50.836;5.356;2022-09-11T03:53:21;16.90;99.90
40822;DHT22;26542;50.836;5.356;2022-09-11T03:55:48;16.90;99.90
40822;DHT22;26542;50.836;5.356;2022-09-11T03:58:21;16.90;99.90
40822;DHT22;26542;50.836;5.356;2022-09-11T04:00:47;16.90;99.90
40822;DHT22;26542;50.836;5.356;2022-09-11T04:03:16;16.90;99.90
40822;DHT22;26542;50.836;5.356;2022-09-11T04:05:42;16.90;99.90
40822;DHT22;26542;50.836;5.356;2022-09-11T04:08:11;16.90;99.90
40822;DHT22;26542;50.836;5.356;2022-09-11T04:10:37;16.90;99.90
40822;DHT22;26542;50.836;5.356;2022-09-11T04:13:04;16.90;99.90
40822;DHT22;26542;50.836;5.356;2022-09-11T04:15:29;17.00;99.90
40822;DHT22;26542;50.836;5.356;2022-09-11T04:17:59;16.80;99.90
40822;DHT22;26542;50.836;5.356;2022-09-11T04:20:25;16.90;99.90
40822;DHT22;26542;50.836;5.356;2022-09-11T04:22:51;16.90;99.90
40822;DHT22;26542;50.836;5.356;2022-09-11T04:25:17;16.90;99.90
40822;DHT22;26542;50.836;5.356;2022-09-11T04:27:42;16.90;99.90
40822;DHT22;26542;50.836;5.356;2022-09-11T04:30:08;16.90;99.90
40822;DHT22;26542;50.836;5.356;2022-09-11T04:32:36;16.80;99.90
40822;DHT22;26542;50.836;5.356;2022-09-11T04:35:05;16.90;99.90
40822;DHT22;26542;50.836;5.356;2022-09-11T04:37:30;17.00;99.90
40822;DHT22;26542;50.836;5.356;2022-09-11T04:39:59;16.90;99.90
40822;DHT22;26542;50.836;5.356;2022-09-11T04:42:26;16.90;99.90
40822;DHT22;26542;50.836;5.356;2022-09-11T04:44:52;16.90;99.90
40822;DHT22;26542;50.836;5.356;2022-09-11T04:47:20;16.90;99.90
40822;DHT22;26542;50.836;5.356;2022-09-11T04:49:46;16.80;99.90
40822;DHT22;26542;50.836;5.356;2022-09-11T04:52:13;16.80;99.90
40822;DHT22;26542;50.836;5.356;2022-09-11T04:54:39;16.80;99.90
40822;DHT22;26542;50.836;5.356;2022-09-11T04:57:05;16.80;99.90
40822;DHT22;26542;50.836;5.356;2022-09-11T04:59:31;16.80;99.90
40822;DHT22;26542;50.836;5.356;2022-09-11T05:01:56;16.70;99.90
40822;DHT22;26542;50.836;5.356;2022-09-11T05:04:25;16.60;99.90
40822;DHT22;26542;50.836;5.356;2022-09-11T05:06:50;16.80;99.90
40822;DHT22;26542;50.836;5.356;2022-09-11T05:09:17;16.70;99.90
40822;DHT22;26542;50.836;5.356;2022-09-11T05:11:43;16.80;99.90
40822;DHT22;26542;50.836;5.356;2022-09-11T05:14:09;16.80;99.90
40822;DHT22;26542;50.836;5.356;2022-09-11T05:16:36;16.70;99.90
40822;DHT22;26542;50.836;5.356;2022-09-11T05:19:03;16.70;99.90
40822;DHT22;26542;50.836;5.356;2022-09-11T05:21:32;16.80;99.90
40822;DHT22;26542;50.836;5.356;2022-09-11T05:23:59;16.90;99.90
40822;DHT22;26542;50.836;5.356;2022-09-11T05:26:31;16.80;99.90
40822;DHT22;26542;50.836;5.356;2022-09-11T05:29:19;16.80;99.90
40822;DHT22;26542;50.836;5.356;2022-09-11T05:31:44;16.90;99.90
40822;DHT22;26542;50.836;5.356;2022-09-11T05:34:10;16.90;99.90
40822;DHT22;26542;50.836;5.356;2022-09-11T05:36:36;16.90;99.90
40822;DHT22;26542;50.836;5.356;2022-09-11T05:39:06;16.90;99.90
40822;DHT22;26542;50.836;5.356;2022-09-11T05:41:32;16.90;99.90
40822;DHT22;26542;50.836;5.356;2022-09-11T05:43:58;16.90;99.90
40822;DHT22;26542;50.836;5.356;2022-09-11T05:46:24;16.90;99.90
40822;DHT22;26542;50.836;5.356;2022-09-11T05:49:13;16.90;99.90
40822;DHT22;26542;50.836;5.356;2022-09-11T05:52:01;16.90;99.90
40822;DHT22;26542;50.836;5.356;2022-09-11T05:54:32;17.00;99.90
40822;DHT22;26542;50.836;5.356;2022-09-11T05:57:08;17.00;99.90
40822;DHT22;26542;50.836;5.356;2022-09-11T05:59:54;16.90;99.90
40822;DHT22;26542;50.836;5.356;2022-09-11T06:02:21;17.00;99.90
40822;DHT22;26542;50.836;5.356;2022-09-11T06:04:47;17.00;99.90
40822;DHT22;26542;50.836;5.356;2022-09-11T06:07:20;17.10;99.90
40822;DHT22;26542;50.836;5.356;2022-09-11T06:10:14;17.10;99.90
40822;DHT22;26542;50.836;5.356;2022-09-11T06:12:42;16.90;99.90
40822;DHT22;26542;50.836;5.356;2022-09-11T06:15:09;16.80;99.90
40822;DHT22;26542;50.836;5.356;2022-09-11T06:17:35;16.90;99.90
40822;DHT22;26542;50.836;5.356;2022-09-11T06:20:00;16.80;99.90
40822;DHT22;26542;50.836;5.356;2022-09-11T06:22:26;16.80;99.90
40822;DHT22;26542;50.836;5.356;2022-09-11T06:24:56;16.70;99.90
40822;DHT22;26542;50.836;5.356;2022-09-11T06:27:22;16.70;99.90
40822;DHT22;26542;50.836;5.356;2022-09-11T06:29:48;16.80;99.90
40822;DHT22;26542;50.836;5.356;2022-09-11T06:32:13;16.90;99.90
40822;DHT22;26542;50.836;5.356;2022-09-11T06:34:41;16.90;99.90
40822;DHT22;26542;50.836;5.356;2022-09-11T06:37:16;16.90;99.90
40822;DHT22;26542;50.836;5.356;2022-09-11T06:39:42;17.00;99.90
40822;DHT22;26542;50.836;5.356;2022-09-11T06:42:07;17.10;99.90
40822;DHT22;26542;50.836;5.356;2022-09-11T06:44:35;17.20;99.90
40822;DHT22;26542;50.836;5.356;2022-09-11T06:47:20;17.10;99.90
40822;DHT22;26542;50.836;5.356;2022-09-11T06:49:46;17.10;99.90
40822;DHT22;26542;50.836;5.356;2022-09-11T06:52:12;17.00;99.90
40822;DHT22;26542;50.836;5.356;2022-09-11T06:54:38;17.10;99.90
40822;DHT22;26542;50.836;5.356;2022-09-11T06:57:04;17.10;99.90
40822;DHT22;26542;50.836;5.356;2022-09-11T06:59:30;17.10;99.90
40822;DHT22;26542;50.836;5.356;2022-09-11T07:01:57;17.10;99.90
40822;DHT22;26542;50.836;5.356;2022-09-11T07:04:25;17.10;99.90
40822;DHT22;26542;50.836;5.356;2022-09-11T07:06:53;17.20;99.90
40822;DHT22;26542;50.836;5.356;2022-09-11T07:09:18;17.20;99.90
40822;DHT22;26542;50.836;5.356;2022-09-11T07:11:53;17.20;99.90
40822;DHT22;26542;50.836;5.356;2022-09-11T07:14:22;17.00;99.90
40822;DHT22;26542;50.836;5.356;2022-09-11T07:16:55;17.00;99.90
40822;DHT22;26542;50.836;5.356;2022-09-11T07:19:21;17.00;99.90
40822;DHT22;26542;50.836;5.356;2022-09-11T07:21:49;17.10;99.90
40822;DHT22;26542;50.836;5.356;2022-09-11T07:24:15;17.10;99.90
40822;DHT22;26542;50.836;5.356;2022-09-11T07:26:40;17.20;99.90
40822;DHT22;26542;50.836;5.356;2022-09-11T07:29:06;17.30;99.90
40822;DHT22;26542;50.836;5.356;2022-09-11T07:31:32;17.40;99.90
40822;DHT22;26542;50.836;5.356;2022-09-11T07:34:02;17.40;99.90
40822;DHT22;26542;50.836;5.356;2022-09-11T07:36:30;17.40;99.90
40822;DHT22;26542;50.836;5.356;2022-09-11T07:38:57;17.40;99.90
40822;DHT22;26542;50.836;5.356;2022-09-11T07:41:27;17.30;99.90
40822;DHT22;26542;50.836;5.356;2022-09-11T07:43:55;17.40;99.90
40822;DHT22;26542;50.836;5.356;2022-09-11T07:46:22;17.30;99.90
40822;DHT22;26542;50.836;5.356;2022-09-11T07:48:49;17.40;99.90
40822;DHT22;26542;50.836;5.356;2022-09-11T07:51:16;17.50;99.90
40822;DHT22;26542;50.836;5.356;2022-09-11T07:53:47;17.70;99.90
40822;DHT22;26542;50.836;5.356;2022-09-11T07:56:23;17.60;99.90
40822;DHT22;26542;50.836;5.356;2022-09-11T07:58:51;17.60;99.90
40822;DHT22;26542;50.836;5.356;2022-09-11T08:01:22;17.70;99.90
40822;DHT22;26542;50.836;5.356;2022-09-11T08:03:56;17.70;99.90
40822;DHT22;26542;50.836;5.356;2022-09-11T08:06:22;17.70;99.90
40822;DHT22;26542;50.836;5.356;2022-09-11T08:08:56;17.80;99.90
40822;DHT22;26542;50.836;5.356;2022-09-11T08:11:24;17.90;99.90
40822;DHT22;26542;50.836;5.356;2022-09-11T08:13:51;17.80;99.90
40822;DHT22;26542;50.836;5.356;2022-09-11T08:16:18;17.90;99.90
40822;DHT22;26542;50.836;5.356;2022-09-11T08:18:46;18.00;99.90
40822;DHT22;26542;50.836;5.356;2022-09-11T08:21:13;18.20;99.90
40822;DHT22;26542;50.836;5.356;2022-09-11T08:23:41;18.20;99.90
40822;DHT22;26542;50.836;5.356;2022-09-11T08:26:10;18.20;99.90
40822;DHT22;26542;50.836;5.356;2022-09-11T08:28:37;18.30;99.90
40822;DHT22;26542;50.836;5.356;2022-09-11T08:31:06;18.40;99.90
40822;DHT22;26542;50.836;5.356;2022-09-11T08:33:33;18.50;99.90
40822;DHT22;26542;50.836;5.356;2022-09-11T08:36:04;18.50;99.90
40822;DHT22;26542;50.836;5.356;2022-09-11T08:38:30;18.60;99.90
40822;DHT22;26542;50.836;5.356;2022-09-11T08:40:58;18.60;99.90
40822;DHT22;26542;50.836;5.356;2022-09-11T08:43:34;18.70;99.90
40822;DHT22;26542;50.836;5.356;2022-09-11T08:46:05;18.70;99.90
40822;DHT22;26542;50.836;5.356;2022-09-11T08:51:38;18.90;99.90
40822;DHT22;26542;50.836;5.356;2022-09-11T08:54:06;18.80;99.90
40822;DHT22;26542;50.836;5.356;2022-09-11T08:56:33;18.70;99.90
40822;DHT22;26542;50.836;5.356;2022-09-11T09:01:57;18.70;99.90
40822;DHT22;26542;50.836;5.356;2022-09-11T09:07:52;19.10;99.90
40822;DHT22;26542;50.836;5.356;2022-09-11T09:13:40;19.20;99.90
40822;DHT22;26542;50.836;5.356;2022-09-11T09:16:54;19.30;99.90
40822;DHT22;26542;50.836;5.356;2022-09-11T09:19:32;19.40;99.90
40822;DHT22;26542;50.836;5.356;2022-09-11T09:22:36;19.40;99.90
40822;DHT22;26542;50.836;5.356;2022-09-11T09:25:14;19.50;99.90
40822;DHT22;26542;50.836;5.356;2022-09-11T09:28:33;19.70;99.90
40822;DHT22;26542;50.836;5.356;2022-09-11T09:31:05;19.80;99.90
40822;DHT22;26542;50.836;5.356;2022-09-11T09:33:34;19.80;99.90
40822;DHT22;26542;50.836;5.356;2022-09-11T09:36:17;19.90;99.90
40822;DHT22;26542;50.836;5.356;2022-09-11T09:38:46;20.00;99.90
40822;DHT22;26542;50.836;5.356;2022-09-11T09:41:39;20.20;99.90
40822;DHT22;26542;50.836;5.356;2022-09-11T09:44:33;20.10;99.90
40822;DHT22;26542;50.836;5.356;2022-09-11T09:47:02;20.30;99.90
40822;DHT22;26542;50.836;5.356;2022-09-11T09:49:32;20.30;99.90
40822;DHT22;26542;50.836;5.356;2022-09-11T09:52:00;20.30;99.90
40822;DHT22;26542;50.836;5.356;2022-09-11T09:54:31;20.30;99.90
40822;DHT22;26542;50.836;5.356;2022-09-11T09:57:09;20.30;99.90
40822;DHT22;26542;50.836;5.356;2022-09-11T10:02:42;20.50;99.90
40822;DHT22;26542;50.836;5.356;2022-09-11T10:07:47;20.70;99.90
40822;DHT22;26542;50.836;5.356;2022-09-11T10:13:02;20.90;99.90
40822;DHT22;26542;50.836;5.356;2022-09-11T10:15:33;21.00;99.90
40822;DHT22;26542;50.836;5.356;2022-09-11T10:23:55;21.30;99.90
40822;DHT22;26542;50.836;5.356;2022-09-11T10:26:31;21.40;99.90
40822;DHT22;26542;50.836;5.356;2022-09-11T10:29:31;21.40;99.90
40822;DHT22;26542;50.836;5.356;2022-09-11T10:32:00;21.50;99.90
40822;DHT22;26542;50.836;5.356;2022-09-11T10:34:34;21.60;99.90
40822;DHT22;26542;50.836;5.356;2022-09-11T10:37:24;21.80;99.90
40822;DHT22;26542;50.836;5.356;2022-09-11T10:43:20;22.10;99.90
40822;DHT22;26542;50.836;5.356;2022-09-11T10:46:20;22.30;99.90
40822;DHT22;26542;50.836;5.356;2022-09-11T10:51:32;22.50;99.90
40822;DHT22;26542;50.836;5.356;2022-09-11T11:02:33;22.60;99.40
40822;DHT22;26542;50.836;5.356;2022-09-11T11:05:06;22.60;98.80
40822;DHT22;26542;50.836;5.356;2022-09-11T11:13:52;22.70;99.00
40822;DHT22;26542;50.836;5.356;2022-09-11T11:16:35;22.60;98.90
40822;DHT22;26542;50.836;5.356;2022-09-11T11:19:28;22.70;98.00
40822;DHT22;26542;50.836;5.356;2022-09-11T11:27:25;22.80;97.60
40822;DHT22;26542;50.836;5.356;2022-09-11T11:30:15;22.70;97.50
40822;DHT22;26542;50.836;5.356;2022-09-11T11:41:09;23.00;96.90
40822;DHT22;26542;50.836;5.356;2022-09-11T11:43:39;23.00;95.90
40822;DHT22;26542;50.836;5.356;2022-09-11T11:48:59;23.40;95.40
40822;DHT22;26542;50.836;5.356;2022-09-11T11:51:27;23.70;96.40
40822;DHT22;26542;50.836;5.356;2022-09-11T11:54:07;23.90;97.10
40822;DHT22;26542;50.836;5.356;2022-09-11T11:56:49;24.00;96.20
40822;DHT22;26542;50.836;5.356;2022-09-11T12:06:56;23.80;96.10
40822;DHT22;26542;50.836;5.356;2022-09-11T12:09:27;23.80;95.70
40822;DHT22;26542;50.836;5.356;2022-09-11T12:11:57;23.70;95.80
40822;DHT22;26542;50.836;5.356;2022-09-11T12:17:28;23.80;96.60
40822;DHT22;26542;50.836;5.356;2022-09-11T12:22:48;24.00;95.90
40822;DHT22;26542;50.836;5.356;2022-09-11T12:32:46;24.20;94.70
40822;DHT22;26542;50.836;5.356;2022-09-11T12:46:05;24.70;91.20
40822;DHT22;26542;50.836;5.356;2022-09-11T12:48:41;24.60;92.80
40822;DHT22;26542;50.836;5.356;2022-09-11T12:51:40;24.60;92.10
40822;DHT22;26542;50.836;5.356;2022-09-11T12:54:24;24.60;93.50
40822;DHT22;26542;50.836;5.356;2022-09-11T12:57:36;24.60;92.20
40822;DHT22;26542;50.836;5.356;2022-09-11T12:59:40;24.70;91.70
40822;DHT22;26542;50.836;5.356;2022-09-11T13:05:14;25.00;90.40
40822;DHT22;26542;50.836;5.356;2022-09-11T13:07:44;25.00;91.70
40822;DHT22;26542;50.836;5.356;2022-09-11T13:10:31;25.20;91.60
40822;DHT22;26542;50.836;5.356;2022-09-11T13:13:02;25.30;91.70
40822;DHT22;26542;50.836;5.356;2022-09-11T13:15:37;25.40;90.20
40822;DHT22;26542;50.836;5.356;2022-09-11T13:18:27;25.40;91.20
40822;DHT22;26542;50.836;5.356;2022-09-11T13:20:58;25.60;91.00
40822;DHT22;26542;50.836;5.356;2022-09-11T13:23:25;25.70;90.70
40822;DHT22;26542;50.836;5.356;2022-09-11T13:25:54;25.90;90.90
40822;DHT22;26542;50.836;5.356;2022-09-11T13:28:21;26.00;90.50
40822;DHT22;26542;50.836;5.356;2022-09-11T13:31:00;26.10;90.30
40822;DHT22;26542;50.836;5.356;2022-09-11T13:33:32;26.10;89.60
40822;DHT22;26542;50.836;5.356;2022-09-11T13:35:59;26.10;88.70
40822;DHT22;26542;50.836;5.356;2022-09-11T13:38:34;26.10;87.70
40822;DHT22;26542;50.836;5.356;2022-09-11T13:43:37;25.90;86.20
40822;DHT22;26542;50.836;5.356;2022-09-11T13:46:20;25.80;88.10
40822;DHT22;26542;50.836;5.356;2022-09-11T13:48:48;25.80;86.10
40822;DHT22;26542;50.836;5.356;2022-09-11T13:51:19;25.70;86.50
40822;DHT22;26542;50.836;5.356;2022-09-11T13:54:10;25.70;85.80
40822;DHT22;26542;50.836;5.356;2022-09-11T13:56:45;25.60;86.90
40822;DHT22;26542;50.836;5.356;2022-09-11T14:02:20;25.50;88.00
40822;DHT22;26542;50.836;5.356;2022-09-11T14:04:50;25.50;86.80
40822;DHT22;26542;50.836;5.356;2022-09-11T14:07:24;25.50;87.90
40822;DHT22;26542;50.836;5.356;2022-09-11T14:10:03;25.50;87.80
40822;DHT22;26542;50.836;5.356;2022-09-11T14:12:31;25.50;87.60
40822;DHT22;26542;50.836;5.356;2022-09-11T14:15:08;25.70;88.20
40822;DHT22;26542;50.836;5.356;2022-09-11T14:17:52;25.60;85.50
40822;DHT22;26542;50.836;5.356;2022-09-11T14:20:21;25.70;85.40
40822;DHT22;26542;50.836;5.356;2022-09-11T14:22:54;25.70;85.80
40822;DHT22;26542;50.836;5.356;2022-09-11T14:25:25;25.80;85.60
40822;DHT22;26542;50.836;5.356;2022-09-11T14:27:51;25.90;85.80
40822;DHT22;26542;50.836;5.356;2022-09-11T14:30:32;26.20;86.70
40822;DHT22;26542;50.836;5.356;2022-09-11T14:35:45;26.40;84.50
40822;DHT22;26542;50.836;5.356;2022-09-11T14:38:17;26.40;83.60
40822;DHT22;26542;50.836;5.356;2022-09-11T14:41:00;26.40;85.80
40822;DHT22;26542;50.836;5.356;2022-09-11T14:43:27;26.50;83.60
40822;DHT22;26542;50.836;5.356;2022-09-11T14:45:56;26.40;83.10
40822;DHT22;26542;50.836;5.356;2022-09-11T14:48:27;26.40;83.40
40822;DHT22;26542;50.836;5.356;2022-09-11T14:50:56;26.60;82.70
40822;DHT22;26542;50.836;5.356;2022-09-11T14:53:30;26.60;82.50
40822;DHT22;26542;50.836;5.356;2022-09-11T14:56:03;26.70;83.70
40822;DHT22;26542;50.836;5.356;2022-09-11T14:58:29;26.70;84.30
40822;DHT22;26542;50.836;5.356;2022-09-11T15:00:55;26.80;83.30
40822;DHT22;26542;50.836;5.356;2022-09-11T15:03:21;26.70;84.70
40822;DHT22;26542;50.836;5.356;2022-09-11T15:05:55;26.70;81.70
40822;DHT22;26542;50.836;5.356;2022-09-11T15:08:22;26.60;81.40
40822;DHT22;26542;50.836;5.356;2022-09-11T15:10:48;26.60;82.40
40822;DHT22;26542;50.836;5.356;2022-09-11T15:13:18;26.40;82.80
40822;DHT22;26542;50.836;5.356;2022-09-11T15:15:43;26.40;84.20
40822;DHT22;26542;50.836;5.356;2022-09-11T15:18:16;26.30;83.80
40822;DHT22;26542;50.836;5.356;2022-09-11T15:20:42;26.20;82.80
40822;DHT22;26542;50.836;5.356;2022-09-11T15:23:08;26.30;81.60
40822;DHT22;26542;50.836;5.356;2022-09-11T15:25:34;26.40;83.00
40822;DHT22;26542;50.836;5.356;2022-09-11T15:28:20;26.20;82.00
40822;DHT22;26542;50.836;5.356;2022-09-11T15:30:55;26.30;83.20
40822;DHT22;26542;50.836;5.356;2022-09-11T15:33:23;26.20;82.60
40822;DHT22;26542;50.836;5.356;2022-09-11T15:35:49;26.20;81.80
40822;DHT22;26542;50.836;5.356;2022-09-11T15:38:15;26.30;80.20
40822;DHT22;26542;50.836;5.356;2022-09-11T15:40:41;26.40;81.50
40822;DHT22;26542;50.836;5.356;2022-09-11T15:43:07;26.30;81.90
40822;DHT22;26542;50.836;5.356;2022-09-11T15:45:32;26.30;80.30
40822;DHT22;26542;50.836;5.356;2022-09-11T15:47:58;26.30;80.10
40822;DHT22;26542;50.836;5.356;2022-09-11T15:50:25;26.30;78.40
40822;DHT22;26542;50.836;5.356;2022-09-11T15:52:54;26.20;78.30
40822;DHT22;26542;50.836;5.356;2022-09-11T15:55:20;26.00;80.90
40822;DHT22;26542;50.836;5.356;2022-09-11T15:57:46;25.90;79.90
40822;DHT22;26542;50.836;5.356;2022-09-11T16:00:12;25.90;80.10
40822;DHT22;26542;50.836;5.356;2022-09-11T16:02:39;25.90;80.10
40822;DHT22;26542;50.836;5.356;2022-09-11T16:05:06;25.90;80.60
40822;DHT22;26542;50.836;5.356;2022-09-11T16:07:32;26.00;81.00
40822;DHT22;26542;50.836;5.356;2022-09-11T16:09:58;26.00;80.60
40822;DHT22;26542;50.836;5.356;2022-09-11T16:12:24;26.10;79.80
40822;DHT22;26542;50.836;5.356;2022-09-11T16:14:53;26.10;82.10
40822;DHT22;26542;50.836;5.356;2022-09-11T16:17:19;26.10;81.10
40822;DHT22;26542;50.836;5.356;2022-09-11T16:19:47;26.20;81.40
40822;DHT22;26542;50.836;5.356;2022-09-11T16:22:15;26.10;80.90
40822;DHT22;26542;50.836;5.356;2022-09-11T16:25:00;26.20;80.90
40822;DHT22;26542;50.836;5.356;2022-09-11T16:27:47;26.10;80.80
40822;DHT22;26542;50.836;5.356;2022-09-11T16:30:13;26.10;81.60
40822;DHT22;26542;50.836;5.356;2022-09-11T16:32:40;26.10;80.40
40822;DHT22;26542;50.836;5.356;2022-09-11T16:35:06;25.90;81.00
40822;DHT22;26542;50.836;5.356;2022-09-11T16:37:41;26.00;81.50
40822;DHT22;26542;50.836;5.356;2022-09-11T16:40:07;26.10;82.10
40822;DHT22;26542;50.836;5.356;2022-09-11T16:42:33;26.00;81.50
40822;DHT22;26542;50.836;5.356;2022-09-11T16:44:59;25.90;83.40
40822;DHT22;26542;50.836;5.356;2022-09-11T16:47:31;25.80;84.40
40822;DHT22;26542;50.836;5.356;2022-09-11T16:49:57;25.70;83.70
40822;DHT22;26542;50.836;5.356;2022-09-11T16:52:23;25.70;83.30
40822;DHT22;26542;50.836;5.356;2022-09-11T16:54:56;25.70;83.30
40822;DHT22;26542;50.836;5.356;2022-09-11T16:57:25;25.60;82.40
40822;DHT22;26542;50.836;5.356;2022-09-11T16:59:51;25.40;83.60
40822;DHT22;26542;50.836;5.356;2022-09-11T17:02:17;25.40;84.30
40822;DHT22;26542;50.836;5.356;2022-09-11T17:04:45;25.30;85.30
40822;DHT22;26542;50.836;5.356;2022-09-11T17:07:11;25.30;85.10
40822;DHT22;26542;50.836;5.356;2022-09-11T17:09:37;25.30;84.40
40822;DHT22;26542;50.836;5.356;2022-09-11T17:12:03;25.20;85.70
40822;DHT22;26542;50.836;5.356;2022-09-11T17:14:31;25.20;85.70
40822;DHT22;26542;50.836;5.356;2022-09-11T17:16:56;25.20;85.70
40822;DHT22;26542;50.836;5.356;2022-09-11T17:19:22;25.20;86.50
40822;DHT22;26542;50.836;5.356;2022-09-11T17:21:48;25.10;86.80
40822;DHT22;26542;50.836;5.356;2022-09-11T17:24:15;25.00;86.40
40822;DHT22;26542;50.836;5.356;2022-09-11T17:26:44;24.90;87.10
40822;DHT22;26542;50.836;5.356;2022-09-11T17:29:10;24.90;87.80
40822;DHT22;26542;50.836;5.356;2022-09-11T17:31:36;24.70;88.90
40822;DHT22;26542;50.836;5.356;2022-09-11T17:34:01;24.70;88.80
40822;DHT22;26542;50.836;5.356;2022-09-11T17:36:27;24.70;89.60
40822;DHT22;26542;50.836;5.356;2022-09-11T17:38:53;24.60;89.70
40822;DHT22;26542;50.836;5.356;2022-09-11T17:41:19;24.50;90.10
40822;DHT22;26542;50.836;5.356;2022-09-11T17:43:46;24.40;90.40
40822;DHT22;26542;50.836;5.356;2022-09-11T17:46:18;24.30;90.40
40822;DHT22;26542;50.836;5.356;2022-09-11T17:48:44;24.20;90.40
40822;DHT22;26542;50.836;5.356;2022-09-11T17:51:16;24.10;90.50
40822;DHT22;26542;50.836;5.356;2022-09-11T17:53:44;24.00;90.70
40822;DHT22;26542;50.836;5.356;2022-09-11T17:56:19;23.90;91.00
40822;DHT22;26542;50.836;5.356;2022-09-11T17:58:53;23.80;91.40
40822;DHT22;26542;50.836;5.356;2022-09-11T18:01:19;23.60;91.90
40822;DHT22;26542;50.836;5.356;2022-09-11T18:03:53;23.50;92.10
40822;DHT22;26542;50.836;5.356;2022-09-11T18:08:57;23.10;93.10
40822;DHT22;26542;50.836;5.356;2022-09-11T18:11:35;22.90;93.40
40822;DHT22;26542;50.836;5.356;2022-09-11T18:18:14;22.70;93.70